Airfield :
LOGIN :

Register | Disclaimer

   EN    FR    IT 

 










Legend :    VFR   Marginal VFR   IFR   Intensive IFR   Very Intensive IFR
Visi :
Ceiling :
>= 8 km
>= 3000ft
5 to 8 km
1000 to 3000 ft
1500m to 5 km
500 to 1000 ft
800 to 1500m
200 to 500 ft
< 800m
< 200 ft
Symbols :   Thunderstorms  Fog  Heavy snow  Heavy precipitations  Wind > 20 kt
SIGMETs :     Misc.  Thunderstorms  Icing  Turbulence  Mountain Waves  Volcanic Ashes







- Airport Elevation : 290 ft
- IATA code : LAI
- Download approach charts


LFRO - Lannion

CURRENT METAR :
  • 142030Z AUTO 26018G29KT 9999 BKN026/// BKN033/// OVC058/// ///CB 07/05 Q0996 TEMPO 29028G50KT 4000 SHRA BKN012CB

EXPIRED METARs :
  • 142000Z AUTO 26026G36KT 9999 BKN023/// OVC029/// ///TCU 08/05 Q0996 TEMPO 29028G50KT 4000 SHRA BKN012CB
  • 141930Z AUTO 21015KT 180V240 9999 -RA BKN026/// BKN038/// OVC046/// ///TCU 06/03 Q0996 TEMPO 29028G50KT 4000 SHRA BKN012CB
  • 141900Z AUTO 23018KT 9999 SCT030 BKN037 07/03 Q0996 TEMPO 29028G50KT 4000 SHRA BKN012CB
  • 141830Z AUTO 26018KT 9999 FEW030/// SCT036/// BKN160/// ///TCU 07/03 Q0996 TEMPO 29028G50KT 4000 SHRA BKN012CB
  • 141800Z AUTO 27021KT 9999 BKN029 BKN054 BKN074 07/03 Q0997 TEMPO 29028G50KT 4000 SHRA BKN012CB

TAF TAF LFRO
Valid from the 14 at 18:00 until the 15 at 18:00 UTC


141700Z 1418/1518 26015G25KT 9999 SCT020TCU BKN035
TEMPO 1418/1512 29025G40KT 4000 SHRA BKN012CB
PROB40
TEMPO 1418/1509 TSRAGS
PROB30
TEMPO 1418/1509 29028G50KT TSGR
No reported NOTAMs for that airfield.
2 SIGMETs reported for the Brest FIR (LFRR) :
 
Severe turbulence
LFRR SIGMET 17 VALID 142000/142300 LFPW
LFRR BREST FIR/UIR SEV TURB FCST WI N4630 W00100 - N4630 W00130 - N4330 W00145 - N4500 W00800 - N4900 W00800 - N5000 W00200 - N5000 W00115 - N4830 W00115 - N4815 W00345 - N4630 W00100 SFC/FL050 STNR WKN=
Severe turbulence
LFRR SIGMET 16 VALID 142000/142300 LFPW
LFRR BREST FIR/UIR SEV TURB FCST WI N4600 W00800 - N4800 W00800 - N4730 W00015 - N4630 W00015 - N4630 W00130 - N4530 W00145 - N4600 W00800 FL180/280 NC=



MET'MAP, your aeronautical weather chart ! - Copyright ORBIFLY December 2007 - Disclaimer

ORBIFLY MET'MAP TEAM :

Programming & Development : Alexandra Zaïnal
Concept & Development : Baudouin d'Aumeries
Co-Development & Prog : Marc-Olivier Méhu
Technical & hardware support : Manuel Goepfert

Contact : metmap@orbifly.com




SOURCES & CREDITS :

   NOAA